Time;durP1;ratioP1;P1;durP2;ratioP2;P2;SDS_P1;SDS_P2;PMS_P1;PMS_P2;Temp;Humidity;BMP_temperature;BMP_pressure;BME280_temperature;BME280_humidity;BME280_pressure;Samples;Min_cycle;Max_cycle;Signal;HPM_P1;HPM_P2
2021/05/08 07:32:28;;;;;;;26.05;5.25;;;15.30;99.90;;;;;;5255867;23;20155;-85
2021/05/08 07:34:55;;;;;;;21.30;5.82;;;15.30;99.90;;;;;;4915762;29;20052;-83
2021/05/08 07:37:21;;;;;;;21.75;5.07;;;15.40;99.90;;;;;;4916300;29;20052;-83
2021/05/08 07:39:48;;;;;;;24.17;5.88;;;15.50;99.90;;;;;;4915415;29;20062;-84
2021/05/08 07:42:14;;;;;;;19.10;4.88;;;15.60;99.90;;;;;;4915057;29;20067;-81
2021/05/08 07:44:40;;;;;;;27.10;5.75;;;15.70;99.90;;;;;;4897738;29;20571;-84
2021/05/08 07:47:07;;;;;;;19.42;4.55;;;15.70;99.90;;;;;;4915116;29;20044;-83
2021/05/08 07:49:33;;;;;;;28.95;6.03;;;15.80;99.90;;;;;;4914213;29;20608;-80
2021/05/08 07:51:59;;;;;;;20.23;5.13;;;15.80;99.90;;;;;;4913620;29;20060;-84
2021/05/08 07:54:26;;;;;;;19.77;4.68;;;15.80;99.90;;;;;;4894708;29;20043;-81
2021/05/08 07:56:59;;;;;;;22.90;5.57;;;15.80;99.90;;;;;;4890177;29;20109;-86
2021/05/08 07:59:25;;;;;;;20.67;5.30;;;15.90;99.90;;;;;;4895456;29;20052;-85
2021/05/08 08:01:51;;;;;;;23.33;5.35;;;16.00;99.90;;;;;;4915130;29;20103;-84
2021/05/08 08:04:19;;;;;;;20.05;5.18;;;16.10;99.90;;;;;;4909638;29;20048;-84
2021/05/08 08:06:45;;;;;;;21.48;5.25;;;16.20;99.90;;;;;;4910180;29;20119;-84
2021/05/08 08:09:12;;;;;;;17.52;4.88;;;16.20;99.90;;;;;;4892250;29;20103;-84
2021/05/08 08:11:38;;;;;;;20.67;5.40;;;16.30;99.90;;;;;;4913367;29;20056;-84
2021/05/08 08:14:05;;;;;;;21.65;5.15;;;16.30;99.90;;;;;;4911585;29;20048;-83
2021/05/08 08:16:31;;;;;;;23.33;5.65;;;16.40;99.90;;;;;;4897406;29;20114;-82
2021/05/08 08:18:58;;;;;;;22.88;5.72;;;16.40;99.90;;;;;;4909759;29;20456;-83
2021/05/08 08:21:24;;;;;;;18.50;5.20;;;16.40;99.90;;;;;;4914299;29;20056;-85
2021/05/08 08:23:51;;;;;;;25.85;5.22;;;16.40;99.90;;;;;;4896649;29;20103;-84
2021/05/08 08:26:17;;;;;;;21.52;5.45;;;16.40;99.90;;;;;;4912567;29;20052;-85
2021/05/08 08:28:44;;;;;;;19.85;4.90;;;16.50;99.90;;;;;;4904241;29;20056;-86
2021/05/08 08:31:10;;;;;;;12.45;4.45;;;16.60;99.90;;;;;;4912172;29;20064;-82
2021/05/08 08:33:36;;;;;;;19.90;5.00;;;16.60;99.90;;;;;;4911915;29;20044;-84
2021/05/08 08:36:03;;;;;;;16.13;4.30;;;16.50;99.90;;;;;;4913713;29;20051;-81
2021/05/08 08:38:30;;;;;;;16.10;4.78;;;16.40;99.90;;;;;;4900371;29;20052;-84
2021/05/08 08:40:56;;;;;;;18.92;5.30;;;16.40;99.90;;;;;;4916841;29;20052;-85
2021/05/08 08:43:23;;;;;;;29.20;5.88;;;16.30;99.90;;;;;;4915616;29;20502;-82
2021/05/08 08:45:50;;;;;;;20.40;5.82;;;16.20;99.90;;;;;;4900423;29;20059;-81
2021/05/08 08:48:18;;;;;;;19.35;5.70;;;16.20;99.90;;;;;;4897262;29;20048;-83
2021/05/08 08:50:48;;;;;;;21.50;5.72;;;16.20;99.90;;;;;;4914234;29;20116;-84
2021/05/08 08:53:15;;;;;;;13.05;5.28;;;16.00;99.90;;;;;;4914417;29;20055;-83
2021/05/08 08:55:49;;;;;;;21.98;5.80;;;15.90;99.90;;;;;;4917237;29;20099;-83
2021/05/08 08:58:17;;;;;;;24.77;6.57;;;15.80;99.90;;;;;;4914750;29;20056;-85
2021/05/08 09:00:44;;;;;;;20.83;5.82;;;15.70;99.90;;;;;;4915093;29;20123;-85
2021/05/08 09:03:10;;;;;;;20.33;6.43;;;15.60;99.90;;;;;;4898428;29;20040;-84
2021/05/08 09:05:36;;;;;;;19.95;5.80;;;15.50;99.90;;;;;;4899669;29;20144;-82
2021/05/08 09:08:08;;;;;;;18.67;5.47;;;15.40;99.90;;;;;;4898274;29;20044;-84
2021/05/08 09:10:35;;;;;;;23.77;6.07;;;15.30;99.90;;;;;;4916574;29;20040;-82
2021/05/08 09:13:04;;;;;;;24.35;6.55;;;15.30;99.90;;;;;;4898903;29;20044;-82
2021/05/08 09:15:31;;;;;;;22.13;6.25;;;15.20;99.90;;;;;;4898958;29;20056;-84
2021/05/08 09:17:57;;;;;;;22.67;6.63;;;15.10;99.90;;;;;;4911892;29;20075;-81
2021/05/08 09:20:24;;;;;;;25.48;5.90;;;15.10;99.90;;;;;;4898137;29;20095;-85
2021/05/08 09:22:53;;;;;;;24.02;6.72;;;15.00;99.90;;;;;;4916358;29;20045;-83
2021/05/08 09:25:20;;;;;;;22.30;6.65;;;15.00;99.90;;;;;;4898829;29;20048;-81
2021/05/08 09:27:50;;;;;;;24.80;6.55;;;15.00;99.90;;;;;;4916671;29;20131;-82
2021/05/08 09:30:19;;;;;;;22.58;6.80;;;15.00;99.90;;;;;;4916178;29;20048;-86
2021/05/08 09:32:58;;;;;;;23.80;6.53;;;15.00;99.90;;;;;;4912632;29;20119;-86
2021/05/08 09:35:30;;;;;;;22.90;6.53;;;15.00;99.90;;;;;;4899385;29;20052;-86
2021/05/08 09:38:09;;;;;;;25.27;6.82;;;15.00;99.90;;;;;;4899967;29;20459;-85
2021/05/08 09:40:41;;;;;;;23.95;6.07;;;15.00;99.90;;;;;;4900030;29;20103;-86
2021/05/08 09:43:13;;;;;;;20.27;6.05;;;15.10;99.90;;;;;;4899095;29;20468;-86
2021/05/08 09:45:41;;;;;;;17.40;6.22;;;15.10;99.90;;;;;;4916165;29;20052;-90
2021/05/08 09:48:19;;;;;;;18.15;5.47;;;15.20;99.90;;;;;;4900049;29;20052;-87
2021/05/08 09:51:20;;;;;;;20.23;5.50;;;15.30;99.90;;;;;;4900076;29;20091;-91
2021/05/08 09:53:48;;;;;;;16.92;4.95;;;15.40;99.90;;;;;;4901298;29;20058;-85
2021/05/08 09:56:34;;;;;;;20.13;5.28;;;15.50;99.90;;;;;;4900096;29;20115;-91
2021/05/08 09:59:38;;;;;;;14.65;5.10;;;15.70;99.90;;;;;;4914521;29;20059;-91
2021/05/08 10:02:05;;;;;;;18.10;5.05;;;15.90;99.90;;;;;;4898004;29;20052;-87
2021/05/08 10:04:47;;;;;;;24.48;5.82;;;16.00;99.90;;;;;;4917238;29;20144;-85
2021/05/08 10:07:21;;;;;;;21.83;5.15;;;16.10;99.90;;;;;;4916448;29;20051;-86
2021/05/08 10:09:52;;;;;;;14.65;4.65;;;16.20;99.90;;;;;;4898965;29;20067;-90
2021/05/08 10:12:26;;;;;;;15.18;4.55;;;16.40;99.90;;;;;;4896089;29;20111;-86
2021/05/08 10:14:55;;;;;;;16.75;4.93;;;16.50;99.90;;;;;;4901013;29;20062;-91
2021/05/08 10:17:26;;;;;;;16.98;5.18;;;16.60;99.90;;;;;;4900166;29;20452;-91
2021/05/08 10:20:17;;;;;;;17.48;4.50;;;16.60;99.90;;;;;;4901048;29;20048;-92
2021/05/08 10:23:11;;;;;;;13.68;4.30;;;16.80;99.90;;;;;;4916301;29;20051;-86
2021/05/08 10:25:39;;;;;;;15.90;4.78;;;16.80;99.90;;;;;;4899307;29;20099;-91
2021/05/08 10:28:06;;;;;;;14.25;4.50;;;17.00;99.90;;;;;;4899660;29;20048;-88
2021/05/08 10:30:34;;;;;;;15.88;5.18;;;17.10;99.90;;;;;;4917021;29;20040;-89
2021/05/08 10:33:05;;;;;;;14.63;4.95;;;17.10;99.90;;;;;;4916235;29;20055;-85
2021/05/08 10:35:39;;;;;;;15.88;4.68;;;17.10;99.90;;;;;;4897682;29;20048;-84
2021/05/08 10:38:23;;;;;;;16.75;5.43;;;17.20;99.90;;;;;;4914416;29;20056;-90
2021/05/08 10:40:59;;;;;;;17.15;4.75;;;17.20;99.90;;;;;;4899379;29;20055;-88
2021/05/08 10:43:42;;;;;;;15.43;4.22;;;17.30;99.90;;;;;;4898290;29;20052;-85
2021/05/08 10:46:14;;;;;;;15.55;4.93;;;17.30;99.90;;;;;;4898342;29;20079;-85
2021/05/08 10:49:07;;;;;;;22.88;5.88;;;17.20;99.90;;;;;;4914974;29;20044;-85
2021/05/08 10:51:52;;;;;;;17.23;4.22;;;17.20;99.90;;;;;;4915395;29;20491;-89
2021/05/08 10:54:46;;;;;;;15.35;4.57;;;17.10;99.90;;;;;;4914822;29;20531;-89
2021/05/08 10:57:20;;;;;;;14.75;4.53;;;17.10;99.90;;;;;;4899058;29;20100;-84
2021/05/08 11:00:07;;;;;;;14.38;4.88;;;17.00;99.90;;;;;;4913035;29;20044;-87
2021/05/08 11:02:43;;;;;;;19.10;5.35;;;16.90;99.90;;;;;;4899207;29;20049;-87
2021/05/08 11:05:32;;;;;;;14.50;5.25;;;16.80;99.90;;;;;;4898210;29;22903;-86
2021/05/08 11:07:59;;;;;;;17.17;4.82;;;16.80;99.90;;;;;;4912438;29;20055;-84
2021/05/08 11:10:32;;;;;;;17.00;4.30;;;16.70;99.90;;;;;;4915390;29;20056;-87
2021/05/08 11:13:07;;;;;;;16.85;4.63;;;16.70;99.90;;;;;;4899268;29;20056;-89
2021/05/08 11:15:55;;;;;;;16.70;4.88;;;16.60;99.90;;;;;;4913430;29;20040;-86
2021/05/08 11:18:34;;;;;;;17.50;4.90;;;16.60;99.90;;;;;;4912006;29;20116;-88
2021/05/08 11:21:04;;;;;;;14.40;4.60;;;16.60;99.90;;;;;;4912016;29;20075;-84
2021/05/08 11:24:01;;;;;;;17.15;4.30;;;16.60;99.90;;;;;;4912272;29;20063;-86
2021/05/08 11:26:35;;;;;;;18.30;4.90;;;16.50;99.90;;;;;;4910658;29;20095;-86
2021/05/08 11:29:01;;;;;;;15.60;4.90;;;16.50;99.90;;;;;;4896940;29;20066;-87
2021/05/08 11:31:30;;;;;;;19.65;5.22;;;16.50;99.90;;;;;;4913183;29;20056;-89
2021/05/08 11:34:18;;;;;;;19.98;4.93;;;16.50;99.90;;;;;;4894398;29;20058;-85
2021/05/08 11:36:55;;;;;;;16.00;4.40;;;16.40;99.90;;;;;;4912791;29;20059;-86
2021/05/08 11:39:29;;;;;;;16.67;4.70;;;16.50;99.90;;;;;;4893619;29;20044;-86
2021/05/08 11:41:57;;;;;;;15.55;4.45;;;16.50;99.90;;;;;;4915118;29;20123;-86
2021/05/08 11:44:29;;;;;;;17.30;5.15;;;16.40;99.90;;;;;;4914645;29;20511;-85
2021/05/08 11:47:01;;;;;;;16.00;5.00;;;16.50;99.90;;;;;;4915398;29;20111;-85
2021/05/08 11:49:35;;;;;;;14.48;4.22;;;16.50;99.90;;;;;;4898104;29;20434;-84
2021/05/08 11:52:06;;;;;;;12.10;4.20;;;16.60;99.90;;;;;;4914839;29;20509;-87
2021/05/08 11:54:40;;;;;;;17.92;4.18;;;16.60;99.90;;;;;;4897429;29;20100;-86
2021/05/08 11:57:20;;;;;;;14.60;4.03;;;16.60;99.90;;;;;;4909743;29;20052;-83
2021/05/08 11:59:47;;;;;;;14.95;4.40;;;16.60;99.90;;;;;;4895637;29;20507;-85
2021/05/08 12:02:15;;;;;;;13.15;4.00;;;16.60;99.90;;;;;;4897561;29;20064;-85
2021/05/08 12:04:46;;;;;;;13.95;4.18;;;16.60;99.90;;;;;;4898125;29;20048;-85
2021/05/08 12:07:12;;;;;;;16.08;3.85;;;16.70;99.90;;;;;;4913900;29;20044;-84
2021/05/08 12:09:39;;;;;;;13.13;4.28;;;16.70;99.90;;;;;;4916446;29;20464;-87
2021/05/08 12:12:06;;;;;;;15.73;4.72;;;16.70;99.90;;;;;;4917182;29;20044;-90
2021/05/08 12:14:42;;;;;;;14.30;3.65;;;16.80;99.90;;;;;;4901344;29;20076;-88
2021/05/08 12:17:10;;;;;;;15.98;4.07;;;16.80;99.90;;;;;;4900070;29;20064;-88
2021/05/08 12:19:39;;;;;;;15.15;4.50;;;16.90;99.90;;;;;;4903273;29;20057;-89
2021/05/08 12:22:06;;;;;;;15.57;4.07;;;17.00;99.90;;;;;;4917506;29;20108;-89
2021/05/08 12:24:33;;;;;;;14.93;4.40;;;17.00;99.90;;;;;;4917975;29;20455;-89
2021/05/08 12:26:59;;;;;;;12.57;3.45;;;17.20;99.90;;;;;;4916137;29;20062;-91
2021/05/08 12:29:26;;;;;;;14.07;3.20;;;17.30;99.90;;;;;;4900926;29;20116;-90
2021/05/08 12:31:53;;;;;;;11.73;3.60;;;17.40;99.90;;;;;;4917487;29;20095;-89
2021/05/08 12:34:20;;;;;;;14.88;4.03;;;17.40;99.90;;;;;;4901595;29;20052;-92
2021/05/08 12:37:04;;;;;;;8.95;3.13;;;17.50;99.90;;;;;;4914646;29;20052;-88
2021/05/08 12:39:31;;;;;;;14.05;3.50;;;17.60;99.90;;;;;;4898912;29;20055;-89
2021/05/08 12:41:59;;;;;;;13.48;3.65;;;17.70;99.90;;;;;;4917740;29;20044;-92
2021/05/08 12:44:34;;;;;;;11.55;2.90;;;17.80;99.90;;;;;;4913418;29;20047;-86
2021/05/08 12:47:16;;;;;;;11.38;3.47;;;17.90;99.90;;;;;;4894136;29;20069;-87
2021/05/08 12:50:25;;;;;;;8.82;3.20;;;17.90;99.90;;;;;;4896576;29;20071;-84
2021/05/08 12:53:06;;;;;;;10.50;3.15;;;18.00;99.90;;;;;;4838262;29;20049;-92
2021/05/08 12:55:34;;;;;;;10.82;3.28;;;18.10;99.90;;;;;;4838417;29;20050;-90
2021/05/08 12:58:06;;;;;;;11.27;3.35;;;18.30;99.90;;;;;;4823810;29;20229;-89
2021/05/08 13:00:48;;;;;;;10.68;3.17;;;18.50;99.90;;;;;;4839068;29;20049;-90
2021/05/08 13:03:20;;;;;;;11.63;3.13;;;18.50;99.90;;;;;;4837852;29;20106;-89
2021/05/08 13:05:46;;;;;;;14.85;3.50;;;18.60;99.90;;;;;;4835991;29;20582;-88
2021/05/08 13:08:13;;;;;;;11.38;3.30;;;18.60;99.90;;;;;;4838780;29;20577;-91
2021/05/08 13:10:43;;;;;;;10.77;3.28;;;18.70;99.90;;;;;;4839543;29;20065;-89
2021/05/08 13:13:18;;;;;;;13.50;3.28;;;18.70;99.90;;;;;;4838854;29;20054;-89
2021/05/08 13:15:54;;;;;;;16.60;3.80;;;18.80;99.90;;;;;;4839145;29;20095;-89
2021/05/08 13:18:22;;;;;;;9.70;3.00;;;18.90;99.90;;;;;;4818583;29;20650;-91
2021/05/08 13:20:50;;;;;;;11.02;3.70;;;19.00;99.90;;;;;;4838275;29;20050;-87
2021/05/08 13:23:16;;;;;;;11.50;2.95;;;19.00;99.90;;;;;;4868648;29;20157;-90
2021/05/08 13:25:43;;;;;;;12.43;2.83;;;19.00;99.90;;;;;;4916809;29;20534;-91
2021/05/08 13:28:09;;;;;;;10.07;3.38;;;19.00;99.90;;;;;;4898700;29;20089;-86
2021/05/08 13:30:36;;;;;;;10.35;3.38;;;19.00;99.90;;;;;;4900207;29;20111;-91
2021/05/08 13:33:04;;;;;;;10.73;3.65;;;19.00;99.90;;;;;;4917752;29;20070;-95
2021/05/08 13:35:31;;;;;;;11.38;3.42;;;19.10;99.90;;;;;;4916525;29;20044;-91
2021/05/08 13:38:00;;;;;;;12.38;3.75;;;19.10;99.90;;;;;;4898028;29;20048;-94
2021/05/08 13:40:27;;;;;;;11.77;3.20;;;19.10;99.90;;;;;;4897861;29;20071;-91
2021/05/08 13:42:55;;;;;;;10.30;3.00;;;19.10;99.90;;;;;;4915201;29;20135;-89
2021/05/08 13:45:21;;;;;;;9.88;3.30;;;19.10;99.90;;;;;;4894493;29;20104;-90
2021/05/08 13:47:48;;;;;;;12.10;3.78;;;19.10;99.90;;;;;;4913567;29;20051;-89
2021/05/08 13:50:15;;;;;;;10.23;3.70;;;19.10;99.90;;;;;;4912759;29;20190;-90
2021/05/08 13:52:41;;;;;;;10.15;3.20;;;18.90;99.90;;;;;;4899433;29;20507;-90
2021/05/08 13:55:08;;;;;;;16.00;3.60;;;18.90;99.90;;;;;;4914357;29;20079;-91
2021/05/08 13:57:50;;;;;;;11.40;3.17;;;18.70;99.90;;;;;;4900396;29;20044;-91
2021/05/08 14:00:17;;;;;;;12.05;4.03;;;18.60;99.90;;;;;;4915017;29;20427;-88
2021/05/08 14:02:43;;;;;;;16.77;3.97;;;18.50;99.90;;;;;;4899783;29;20058;-89
2021/05/08 14:05:11;;;;;;;12.27;3.55;;;18.40;99.90;;;;;;4915149;29;20190;-89
2021/05/08 14:07:37;;;;;;;11.43;3.45;;;18.40;99.90;;;;;;4917693;29;20048;-89
2021/05/08 14:10:05;;;;;;;16.10;3.63;;;18.30;99.90;;;;;;4917177;29;20411;-89
2021/05/08 14:12:32;;;;;;;11.40;3.50;;;18.30;99.90;;;;;;4900192;29;20471;-88
2021/05/08 14:14:58;;;;;;;10.75;3.55;;;18.20;99.90;;;;;;4917461;29;20051;-93
2021/05/08 14:17:24;;;;;;;13.27;3.95;;;18.20;99.90;;;;;;4888976;29;20056;-92
2021/05/08 14:19:52;;;;;;;12.25;3.90;;;18.00;99.90;;;;;;4900718;29;20059;-86
2021/05/08 14:22:18;;;;;;;12.95;3.72;;;18.00;99.90;;;;;;4917111;29;20111;-89
2021/05/08 14:24:45;;;;;;;12.43;4.13;;;17.90;99.90;;;;;;4917450;29;20056;-93
2021/05/08 14:27:11;;;;;;;15.30;3.75;;;17.90;99.90;;;;;;4917426;29;20115;-90
2021/05/08 14:29:38;;;;;;;12.75;4.10;;;17.90;99.90;;;;;;4901135;29;20052;-87
2021/05/08 14:32:04;;;;;;;12.82;3.30;;;18.00;99.90;;;;;;4916556;29;20055;-90
2021/05/08 14:34:31;;;;;;;10.95;3.90;;;17.90;99.90;;;;;;4900752;29;20441;-92
2021/05/08 14:37:00;;;;;;;13.10;3.63;;;18.00;99.90;;;;;;4900553;29;20416;-87
2021/05/08 14:39:27;;;;;;;12.65;3.22;;;18.00;99.90;;;;;;4916578;29;20055;-89
2021/05/08 14:41:53;;;;;;;11.90;3.47;;;18.00;99.90;;;;;;4899917;29;20080;-88
2021/05/08 14:44:20;;;;;;;11.45;3.63;;;18.10;99.90;;;;;;4900245;29;20064;-90
2021/05/08 14:46:46;;;;;;;13.23;3.42;;;18.20;99.90;;;;;;4916072;29;20091;-92
2021/05/08 14:49:13;;;;;;;8.98;3.42;;;18.10;99.90;;;;;;4916325;29;20055;-89
2021/05/08 14:51:40;;;;;;;12.98;3.75;;;18.00;99.90;;;;;;4915807;29;21371;-92
2021/05/08 14:54:06;;;;;;;9.55;3.42;;;18.00;99.90;;;;;;4913404;29;20052;-90
2021/05/08 14:56:32;;;;;;;7.28;3.30;;;17.80;99.90;;;;;;4913574;29;20468;-87
2021/05/08 14:59:01;;;;;;;10.85;3.72;;;17.80;99.90;;;;;;4900371;29;20411;-89
2021/05/08 15:01:28;;;;;;;9.15;3.40;;;17.80;99.90;;;;;;4914901;29;20427;-88
2021/05/08 15:03:54;;;;;;;12.40;3.33;;;17.70;99.90;;;;;;4900145;29;20503;-90
2021/05/08 15:06:21;;;;;;;11.35;3.58;;;17.70;99.90;;;;;;4916323;29;20048;-87
2021/05/08 15:08:47;;;;;;;11.65;3.35;;;17.60;99.90;;;;;;4900525;29;20048;-88
2021/05/08 15:11:14;;;;;;;8.93;3.40;;;17.60;99.90;;;;;;4916074;29;20067;-90
2021/05/08 15:13:40;;;;;;;13.82;4.43;;;17.60;99.90;;;;;;4901136;29;20595;-92
2021/05/08 15:16:07;;;;;;;13.95;3.50;;;17.50;99.90;;;;;;4914503;29;20456;-88
2021/05/08 15:18:33;;;;;;;13.48;3.40;;;17.50;99.90;;;;;;4912335;29;20048;-92
2021/05/08 15:21:04;;;;;;;12.20;3.50;;;17.40;99.90;;;;;;4916587;29;20050;-86
2021/05/08 15:23:31;;;;;;;14.55;3.60;;;17.40;99.90;;;;;;4913452;29;20048;-85
2021/05/08 15:25:58;;;;;;;12.57;3.38;;;17.40;99.90;;;;;;4897829;29;20056;-85
2021/05/08 15:28:24;;;;;;;10.77;3.38;;;17.40;99.90;;;;;;4897771;29;20044;-84
2021/05/08 15:30:51;;;;;;;14.70;3.92;;;17.40;99.90;;;;;;4913038;29;20075;-83
2021/05/08 15:33:17;;;;;;;12.82;3.53;;;17.40;99.90;;;;;;4910558;29;20044;-83
2021/05/08 15:35:43;;;;;;;9.48;2.85;;;17.40;99.90;;;;;;4915114;29;20056;-84
2021/05/08 15:38:10;;;;;;;12.10;3.45;;;17.40;99.90;;;;;;4897403;29;20139;-84
2021/05/08 15:40:37;;;;;;;10.48;3.10;;;17.40;99.90;;;;;;4898949;29;20044;-83
2021/05/08 15:43:03;;;;;;;11.20;2.83;;;17.40;99.90;;;;;;4914607;29;20063;-83
2021/05/08 15:45:30;;;;;;;9.40;2.95;;;17.40;99.90;;;;;;4897881;29;20047;-83
2021/05/08 15:47:56;;;;;;;14.95;3.28;;;17.30;99.90;;;;;;4897267;29;20123;-85
2021/05/08 15:50:23;;;;;;;12.93;3.08;;;17.30;99.90;;;;;;4911477;29;20127;-84
2021/05/08 15:53:02;;;;;;;9.05;3.22;;;17.20;99.90;;;;;;4897361;29;20052;-84
2021/05/08 15:55:29;;;;;;;10.60;3.15;;;17.20;99.90;;;;;;4914870;29;20746;-83
2021/05/08 15:57:56;;;;;;;14.48;3.80;;;17.10;99.90;;;;;;4914076;29;20138;-84
2021/05/08 16:00:24;;;;;;;12.73;3.90;;;17.10;99.90;;;;;;4906123;29;20123;-83
2021/05/08 16:02:50;;;;;;;12.50;3.30;;;17.00;99.90;;;;;;4895692;29;20111;-84
2021/05/08 16:05:17;;;;;;;13.18;3.17;;;16.90;99.90;;;;;;4899635;29;20135;-83
2021/05/08 16:07:44;;;;;;;11.90;3.35;;;16.90;99.90;;;;;;4911274;29;20048;-84
2021/05/08 16:10:23;;;;;;;11.85;3.50;;;16.80;99.90;;;;;;4903719;29;20048;-84
2021/05/08 16:12:49;;;;;;;9.98;3.15;;;16.80;99.90;;;;;;4888864;29;20052;-83
2021/05/08 16:15:16;;;;;;;8.32;3.60;;;16.70;99.90;;;;;;4887076;29;20427;-84
2021/05/08 16:17:42;;;;;;;8.98;3.03;;;16.70;99.90;;;;;;4888445;29;20103;-83
2021/05/08 16:20:09;;;;;;;10.15;3.00;;;16.70;99.90;;;;;;4901082;29;20128;-84
2021/05/08 16:22:36;;;;;;;13.52;3.28;;;16.70;99.90;;;;;;4905557;29;20048;-83
2021/05/08 16:25:04;;;;;;;9.88;2.72;;;16.70;99.90;;;;;;4904628;29;20419;-84
2021/05/08 16:27:31;;;;;;;9.75;2.97;;;16.70;99.90;;;;;;4887775;29;20037;-83
2021/05/08 16:29:58;;;;;;;9.38;3.15;;;16.70;99.90;;;;;;4903389;29;20048;-82
2021/05/08 16:32:24;;;;;;;12.27;3.72;;;16.60;99.90;;;;;;4902334;29;20830;-83
2021/05/08 16:34:52;;;;;;;14.02;3.75;;;16.70;99.90;;;;;;4898856;29;20056;-84
2021/05/08 16:37:19;;;;;;;8.60;3.00;;;16.70;99.90;;;;;;4880088;29;20488;-83
2021/05/08 16:39:46;;;;;;;9.57;2.97;;;16.70;99.90;;;;;;4897811;29;20084;-84
2021/05/08 16:42:13;;;;;;;11.50;3.35;;;16.60;99.90;;;;;;4888975;29;20075;-85
2021/05/08 16:44:42;;;;;;;13.82;3.65;;;16.60;99.90;;;;;;4892742;29;20053;-86
2021/05/08 16:47:10;;;;;;;12.45;3.90;;;16.60;99.90;;;;;;4887624;29;20528;-85
2021/05/08 16:49:37;;;;;;;7.30;2.50;;;16.60;99.90;;;;;;4898202;29;20056;-86
2021/05/08 16:52:03;;;;;;;9.55;3.40;;;16.60;99.90;;;;;;4886756;29;20052;-83
2021/05/08 16:54:30;;;;;;;10.25;2.75;;;16.60;99.90;;;;;;4899523;29;20627;-83
2021/05/08 16:56:56;;;;;;;14.70;3.28;;;16.60;99.90;;;;;;4899806;29;20059;-84
2021/05/08 16:59:23;;;;;;;13.18;3.17;;;16.60;99.90;;;;;;4901630;29;20419;-84
2021/05/08 17:01:50;;;;;;;9.45;3.03;;;16.60;99.90;;;;;;4903704;29;20538;-84
2021/05/08 17:04:20;;;;;;;10.93;2.97;;;16.70;99.90;;;;;;4908288;29;20102;-81
2021/05/08 17:06:47;;;;;;;10.35;2.72;;;16.70;99.90;;;;;;4909298;29;20468;-84
2021/05/08 17:09:13;;;;;;;8.73;2.80;;;16.70;99.90;;;;;;4907040;29;20115;-85
2021/05/08 17:11:39;;;;;;;8.50;2.90;;;16.70;99.90;;;;;;4908358;29;20517;-83
2021/05/08 17:14:06;;;;;;;6.72;2.83;;;16.70;99.90;;;;;;4906413;29;20783;-85
2021/05/08 17:16:32;;;;;;;9.15;2.90;;;16.80;99.90;;;;;;4908022;29;20055;-84
2021/05/08 17:18:59;;;;;;;11.02;2.78;;;16.90;99.90;;;;;;4905814;29;20104;-86
2021/05/08 17:21:25;;;;;;;10.55;2.72;;;16.90;99.90;;;;;;4904640;29;20502;-84
2021/05/08 17:23:52;;;;;;;10.93;2.25;;;17.00;99.90;;;;;;4908216;29;20546;-84
2021/05/08 17:26:18;;;;;;;9.93;2.78;;;17.00;99.90;;;;;;4900389;29;20107;-84
2021/05/08 17:28:44;;;;;;;7.75;2.33;;;17.10;99.90;;;;;;4890379;29;20071;-86
2021/05/08 17:31:12;;;;;;;10.90;2.78;;;17.10;99.90;;;;;;4903777;29;20060;-86
2021/05/08 17:33:38;;;;;;;8.85;2.75;;;17.00;99.90;;;;;;4902664;29;20048;-86
2021/05/08 17:36:05;;;;;;;9.25;2.80;;;17.00;99.90;;;;;;4890273;29;20064;-85
2021/05/08 17:38:31;;;;;;;14.27;3.42;;;17.00;99.90;;;;;;4902912;29;20056;-85
2021/05/08 17:40:58;;;;;;;9.20;2.88;;;17.10;99.90;;;;;;4903185;29;20044;-84
2021/05/08 17:43:24;;;;;;;8.85;2.78;;;17.20;99.90;;;;;;4907248;29;20056;-85
2021/05/08 17:45:50;;;;;;;6.18;2.35;;;17.20;99.90;;;;;;4908496;29;20095;-87
2021/05/08 17:48:17;;;;;;;9.13;2.53;;;17.20;99.90;;;;;;4892591;29;20048;-84
2021/05/08 17:50:44;;;;;;;9.77;2.78;;;17.20;99.90;;;;;;4892317;29;20055;-83
2021/05/08 17:53:10;;;;;;;9.45;2.50;;;17.20;99.90;;;;;;4892375;29;20052;-83
2021/05/08 17:55:36;;;;;;;7.40;2.47;;;17.20;99.90;;;;;;4896124;29;20059;-84
2021/05/08 17:58:03;;;;;;;11.30;3.13;;;17.30;99.90;;;;;;4911080;29;20056;-84
2021/05/08 18:00:29;;;;;;;10.32;3.17;;;17.30;99.90;;;;;;4912320;29;20060;-85
2021/05/08 18:02:55;;;;;;;10.18;3.00;;;17.20;99.90;;;;;;4913383;29;20076;-84
2021/05/08 18:05:22;;;;;;;8.15;2.83;;;17.10;99.90;;;;;;4904245;29;20112;-85
2021/05/08 18:07:48;;;;;;;7.50;2.65;;;17.00;99.90;;;;;;4906630;29;20051;-84
2021/05/08 18:10:15;;;;;;;8.45;2.60;;;16.90;99.90;;;;;;4891954;29;20068;-84
2021/05/08 18:12:41;;;;;;;9.32;2.70;;;17.00;99.90;;;;;;4893049;29;20045;-85
2021/05/08 18:15:08;;;;;;;10.45;3.20;;;17.00;99.90;;;;;;4908695;29;20052;-84
2021/05/08 18:17:35;;;;;;;6.88;2.58;;;17.00;99.90;;;;;;4895169;29;20044;-85
2021/05/08 18:20:02;;;;;;;8.25;2.60;;;17.20;99.90;;;;;;4891661;29;20048;-85
2021/05/08 18:22:28;;;;;;;7.75;2.60;;;17.30;99.90;;;;;;4910649;29;20056;-84
2021/05/08 18:24:56;;;;;;;12.82;3.17;;;17.30;99.90;;;;;;4904810;29;20136;-82
2021/05/08 18:27:22;;;;;;;10.50;2.80;;;17.30;99.90;;;;;;4895840;29;20116;-83
2021/05/08 18:29:49;;;;;;;11.90;2.75;;;17.50;99.90;;;;;;4911361;29;20107;-83
2021/05/08 18:32:15;;;;;;;11.05;2.67;;;17.60;99.90;;;;;;4912198;29;20503;-81
2021/05/08 18:34:41;;;;;;;6.82;2.45;;;17.60;99.90;;;;;;4909919;29;20063;-83
2021/05/08 18:37:08;;;;;;;7.90;2.40;;;17.70;99.90;;;;;;4912848;29;20055;-82
2021/05/08 18:39:34;;;;;;;8.55;2.60;;;17.60;99.90;;;;;;4913046;29;20079;-82
2021/05/08 18:42:01;;;;;;;8.65;2.53;;;17.50;99.90;;;;;;4912575;29;20044;-84
2021/05/08 18:44:27;;;;;;;8.63;2.65;;;17.30;99.90;;;;;;4896646;29;20044;-84
2021/05/08 18:46:54;;;;;;;9.25;2.63;;;17.10;99.90;;;;;;4897537;29;20044;-85
2021/05/08 18:49:20;;;;;;;11.15;2.95;;;16.90;99.90;;;;;;4911826;29;20122;-85
2021/05/08 18:51:46;;;;;;;7.75;2.83;;;16.60;99.90;;;;;;4914353;29;20048;-84
2021/05/08 18:54:13;;;;;;;9.07;2.83;;;16.50;99.90;;;;;;4895762;29;20047;-84
2021/05/08 18:56:39;;;;;;;9.10;2.40;;;16.40;99.90;;;;;;4913196;29;20090;-84
2021/05/08 18:59:06;;;;;;;13.60;2.92;;;16.30;99.90;;;;;;4910660;29;20052;-82
2021/05/08 19:01:32;;;;;;;11.25;3.13;;;16.20;99.90;;;;;;4910965;29;20056;-82
2021/05/08 19:03:58;;;;;;;8.50;2.75;;;16.10;99.90;;;;;;4896459;29;20448;-83
2021/05/08 19:06:25;;;;;;;9.43;2.95;;;16.00;99.90;;;;;;4896209;29;20052;-84
2021/05/08 19:08:51;;;;;;;11.23;2.67;;;15.90;99.90;;;;;;4894486;29;20055;-85
2021/05/08 19:11:18;;;;;;;8.52;2.60;;;15.90;99.90;;;;;;4912811;29;20115;-83
2021/05/08 19:13:44;;;;;;;7.45;2.75;;;15.80;99.90;;;;;;4913472;29;20484;-85
2021/05/08 19:16:11;;;;;;;10.75;2.83;;;15.70;99.90;;;;;;4912973;29;20051;-84
2021/05/08 19:18:37;;;;;;;14.88;3.13;;;15.70;99.90;;;;;;4911280;29;20516;-84
2021/05/08 19:21:04;;;;;;;12.60;3.08;;;15.70;99.90;;;;;;4913750;29;20107;-86
2021/05/08 19:23:31;;;;;;;8.95;2.40;;;15.60;99.90;;;;;;4911799;29;20455;-85
2021/05/08 19:25:57;;;;;;;16.30;3.30;;;15.50;99.90;;;;;;4896052;29;20060;-84
2021/05/08 19:28:23;;;;;;;8.02;2.97;;;15.40;99.90;;;;;;4894539;29;20099;-85
2021/05/08 19:30:50;;;;;;;10.88;2.80;;;15.40;99.90;;;;;;4893119;29;20048;-83
2021/05/08 19:33:16;;;;;;;10.15;2.88;;;15.40;99.90;;;;;;4911802;29;20044;-86
2021/05/08 19:35:43;;;;;;;14.13;3.38;;;15.40;99.90;;;;;;4912054;29;20063;-85
2021/05/08 19:38:09;;;;;;;11.60;2.80;;;15.30;99.90;;;;;;4903549;29;20056;-85
2021/05/08 19:40:37;;;;;;;9.60;2.55;;;15.30;99.90;;;;;;4912795;29;20048;-83
2021/05/08 19:43:04;;;;;;;11.20;3.15;;;15.30;99.90;;;;;;4912034;29;20067;-83
2021/05/08 19:45:30;;;;;;;11.98;2.78;;;15.30;99.90;;;;;;4907629;29;20052;-84
2021/05/08 19:47:57;;;;;;;11.57;3.10;;;15.30;99.90;;;;;;4891682;29;20051;-84
2021/05/08 19:50:23;;;;;;;11.50;2.42;;;15.20;99.90;;;;;;4906494;29;20060;-86
2021/05/08 19:52:50;;;;;;;9.70;2.45;;;15.20;99.90;;;;;;4906670;29;20535;-85
2021/05/08 19:55:17;;;;;;;7.95;3.08;;;15.10;99.90;;;;;;4900259;29;20551;-85
2021/05/08 19:57:43;;;;;;;16.70;3.42;;;15.10;99.90;;;;;;4906924;29;20703;-84
2021/05/08 20:00:11;;;;;;;11.85;3.00;;;15.00;99.90;;;;;;4900437;29;20103;-86
2021/05/08 20:02:38;;;;;;;8.97;2.97;;;15.00;99.90;;;;;;4892625;29;20538;-85
2021/05/08 20:05:05;;;;;;;14.68;3.00;;;15.00;99.90;;;;;;4890114;29;20297;-84
2021/05/08 20:07:32;;;;;;;8.10;2.97;;;15.00;99.90;;;;;;4901504;29;20055;-84
2021/05/08 20:09:59;;;;;;;11.35;3.63;;;14.90;99.90;;;;;;4900247;29;20044;-86
2021/05/08 20:12:25;;;;;;;12.35;2.88;;;14.90;99.90;;;;;;4886109;29;20164;-85
2021/05/08 20:14:57;;;;;;;12.23;3.25;;;14.80;99.90;;;;;;4882826;29;20079;-83
2021/05/08 20:17:24;;;;;;;12.48;2.78;;;14.80;99.90;;;;;;4892092;29;20439;-83
2021/05/08 20:19:50;;;;;;;14.75;3.10;;;14.80;99.90;;;;;;4898131;29;20116;-83